Schneifelwetter: Wetterstation Hallschlag, 537 m . NN
Wetterdaten: Montag, 13.11.2006
Datum Zeit Temp. A. Temp. 2 Feuchte A. Luftdruck Regen Wind Richtung Richtung Sonnenschein Helligkeit T Regen Taupunkt Windchill
13.11.2006 00:00 3,9 C 3,8 C 92 % 1016 hPa 0,0 l/m 29,1 km/h (5 Bft) W22.5 270 0 min 0 lux 0,00 min 2,7 C -7,7 C
13.11.2006 00:15 3,9 C 3,8 C 92 % 1016 hPa 0,0 l/m 19,9 km/h (4 Bft) W-SW22.5 255 0 min 0 lux 0,00 min 2,7 C -4,6 C
13.11.2006 00:30 3,9 C 3,8 C 92 % 1016 hPa 0,0 l/m 26,8 km/h (4 Bft) W45 260 0 min 0 lux 0,00 min 2,7 C -7,0 C
13.11.2006 00:45 4,0 C 3,8 C 92 % 1016 hPa 0,0 l/m 31,0 km/h (5 Bft) W-SW45 255 0 min 0 lux 0,00 min 2,8 C -8,0 C
13.11.2006 01:00 4,0 C 3,9 C 92 % 1016 hPa 0,0 l/m 32,2 km/h (5 Bft) W45 265 0 min 0 lux 0,00 min 2,8 C -8,3 C
13.11.2006 01:15 4,1 C 3,9 C 92 % 1016 hPa 0,0 l/m 28,3 km/h (4 Bft) W-SW45 255 0 min 0 lux 0,00 min 2,9 C -7,2 C
13.11.2006 01:30 4,1 C 3,8 C 92 % 1015 hPa 0,0 l/m 21,0 km/h (4 Bft) W22.5 260 0 min 0 lux 0,00 min 2,9 C -4,7 C
13.11.2006 01:45 4,0 C 3,8 C 92 % 1015 hPa 0,0 l/m 21,8 km/h (4 Bft) W22.5 260 0 min 0 lux 0,00 min 2,8 C -5,2 C
13.11.2006 02:00 4,0 C 3,8 C 92 % 1015 hPa 0,0 l/m 19,3 km/h (3 Bft) W-SW22.5 255 0 min 0 lux 0,00 min 2,8 C -4,2 C
13.11.2006 02:15 4,0 C 3,8 C 92 % 1015 hPa 0,0 l/m 17,7 km/h (3 Bft) W-SW22.5 245 0 min 0 lux 0,00 min 2,8 C -3,5 C
13.11.2006 02:30 3,9 C 3,7 C 92 % 1015 hPa 0,0 l/m 13,4 km/h (3 Bft) W-SW22.5 255 0 min 0 lux 0,00 min 2,7 C -1,4 C
13.11.2006 02:45 3,9 C 3,6 C 92 % 1014 hPa 0,0 l/m 16,9 km/h (3 Bft) W-SW22.5 250 0 min 0 lux 0,00 min 2,7 C -3,2 C
13.11.2006 03:00 3,9 C 3,6 C 92 % 1014 hPa 0,0 l/m 15,7 km/h (3 Bft) SW45 230 0 min 0 lux 0,00 min 2,7 C -2,6 C
13.11.2006 03:15 3,9 C 3,6 C 93 % 1014 hPa 0,0 l/m 19,7 km/h (3 Bft) W-SW45 245 0 min 0 lux 0,00 min 2,9 C -4,5 C
13.11.2006 03:31 3,9 C 3,6 C 93 % 1014 hPa 0,0 l/m 24,0 km/h (4 Bft) W-SW67.5 240 0 min 0 lux 0,00 min 2,9 C -6,1 C
13.11.2006 03:45 3,9 C 3,6 C 93 % 1014 hPa 0,0 l/m 25,6 km/h (4 Bft) W-SW45 250 0 min 0 lux 0,00 min 2,9 C -6,6 C
13.11.2006 04:00 3,9 C 3,6 C 93 % 1014 hPa 0,0 l/m 24,1 km/h (4 Bft) W-SW45 240 0 min 0 lux 0,00 min 2,9 C -6,1 C
13.11.2006 04:15 3,9 C 3,7 C 93 % 1013 hPa 0,0 l/m 25,2 km/h (4 Bft) W-SW45 240 0 min 0 lux 0,00 min 2,9 C -6,5 C
13.11.2006 04:30 3,9 C 3,7 C 93 % 1013 hPa 0,0 l/m 22,8 km/h (4 Bft) SW22.5 230 0 min 0 lux 0,00 min 2,9 C -5,7 C
13.11.2006 04:45 4,0 C 3,8 C 93 % 1013 hPa 0,0 l/m 19,6 km/h (3 Bft) W-SW45 245 0 min 0 lux 0,00 min 3,0 C -4,3 C
13.11.2006 05:00 4,2 C 4,0 C 93 % 1013 hPa 0,0 l/m 31,6 km/h (5 Bft) W-SW22.5 245 0 min 0 lux 0,00 min 3,2 C -7,9 C
13.11.2006 05:15 4,4 C 4,2 C 93 % 1012 hPa 0,0 l/m 36,5 km/h (5 Bft) W-SW45 245 0 min 0 lux 0,00 min 3,4 C -8,7 C
13.11.2006 05:30 4,5 C 4,3 C 93 % 1012 hPa 0,0 l/m 34,8 km/h (5 Bft) W-SW45 250 0 min 0 lux 0,00 min 3,5 C -8,2 C
13.11.2006 05:45 4,6 C 4,5 C 94 % 1012 hPa 0,0 l/m 42,0 km/h (6 Bft) W-SW45 245 0 min 0 lux 0,00 min 3,7 C -9,5 C
13.11.2006 06:00 4,7 C 4,6 C 94 % 1012 hPa 0,3 l/m 32,7 km/h (5 Bft) W-SW22.5 250 0 min 0 lux 15,00 min 3,8 C -7,5 C
13.11.2006 06:15 4,7 C 4,7 C 94 % 1012 hPa 0,3 l/m 31,8 km/h (5 Bft) W-SW22.5 255 0 min 0 lux 15,00 min 3,8 C -7,3 C
13.11.2006 06:30 4,8 C 4,7 C 94 % 1011 hPa 0,0 l/m 38,1 km/h (5 Bft) W45 260 0 min 0 lux 0,00 min 3,9 C -8,5 C
13.11.2006 06:45 4,8 C 4,8 C 94 % 1011 hPa 0,3 l/m 37,9 km/h (5 Bft) W-SW45 255 0 min 0 lux 15,00 min 3,9 C -8,4 C
13.11.2006 07:00 4,9 C 4,8 C 94 % 1011 hPa 0,0 l/m 36,8 km/h (5 Bft) W22.5 260 0 min 0 lux 0,00 min 4,0 C -8,1 C
13.11.2006 07:15 5,1 C 5,0 C 94 % 1011 hPa 0,0 l/m 36,2 km/h (5 Bft) W-SW45 245 0 min 0 lux 0,00 min 4,2 C -7,7 C
13.11.2006 07:30 5,2 C 5,1 C 95 % 1011 hPa 0,3 l/m 43,1 km/h (6 Bft) W-SW45 255 0 min 116 lux 15,00 min 4,5 C -8,7 C
13.11.2006 07:45 5,3 C 5,1 C 95 % 1011 hPa 0,0 l/m 42,6 km/h (6 Bft) W-SW22.5 250 0 min 245 lux 0,00 min 4,6 C -8,5 C
13.11.2006 08:00 5,3 C 5,1 C 95 % 1010 hPa 0,3 l/m 38,6 km/h (5 Bft) W-SW45 250 0 min 684 lux 15,00 min 4,6 C -7,8 C
13.11.2006 08:15 5,3 C 5,2 C 95 % 1010 hPa 0,0 l/m 40,3 km/h (6 Bft) W-SW22.5 255 0 min 1,62 klux 0,00 min 4,6 C -8,1 C
13.11.2006 08:30 5,5 C 5,3 C 95 % 1010 hPa 0,0 l/m 39,6 km/h (6 Bft) W-SW22.5 250 0 min 3,02 klux 0,00 min 4,8 C -7,7 C
13.11.2006 08:45 5,6 C 5,4 C 95 % 1010 hPa 0,3 l/m 44,4 km/h (6 Bft) W-SW45 250 0 min 5,12 klux 15,00 min 4,9 C -8,3 C
13.11.2006 09:00 5,8 C 5,6 C 95 % 1010 hPa 0,0 l/m 42,9 km/h (6 Bft) W-SW67.5 245 0 min 5,29 klux 0,00 min 5,1 C -7,8 C
13.11.2006 09:15 5,9 C 5,8 C 95 % 1010 hPa 0,3 l/m 40,6 km/h (6 Bft) W-SW22.5 250 0 min 7,27 klux 15,00 min 5,2 C -7,3 C
13.11.2006 09:30 6,1 C 5,9 C 95 % 1010 hPa 0,0 l/m 50,0 km/h (6 Bft) W-SW45 245 0 min 11,4 klux 0,00 min 5,4 C -8,3 C
13.11.2006 09:45 6,2 C 6,0 C 95 % 1009 hPa 0,3 l/m 41,5 km/h (6 Bft) W-SW45 250 0 min 9,7 klux 15,00 min 5,5 C -7,0 C
13.11.2006 10:00 6,3 C 6,0 C 95 % 1009 hPa 0,3 l/m 40,1 km/h (6 Bft) W-SW45 245 0 min 7,09 klux 15,00 min 5,6 C -6,6 C
13.11.2006 10:15 6,3 C 6,1 C 95 % 1009 hPa 0,0 l/m 38,1 km/h (5 Bft) W-SW45 240 0 min 5,64 klux 0,00 min 5,6 C -6,3 C
13.11.2006 10:30 6,4 C 6,2 C 95 % 1009 hPa 0,3 l/m 45,6 km/h (6 Bft) SW45 230 0 min 6,17 klux 15,00 min 5,7 C -7,3 C
13.11.2006 10:45 6,7 C 6,5 C 95 % 1009 hPa 0,3 l/m 41,4 km/h (6 Bft) W-SW45 245 0 min 11,3 klux 15,00 min 6,0 C -6,2 C
13.11.2006 11:00 6,8 C 6,6 C 95 % 1009 hPa 0,3 l/m 46,3 km/h (6 Bft) SW45 235 0 min 7,58 klux 15,00 min 6,1 C -6,8 C
13.11.2006 11:15 6,9 C 6,6 C 95 % 1009 hPa 0,3 l/m 40,3 km/h (6 Bft) SW45 235 0 min 5,40 klux 15,00 min 6,2 C -5,8 C
13.11.2006 11:30 7,0 C 6,7 C 95 % 1009 hPa 0,3 l/m 42,7 km/h (6 Bft) W-SW67.5 250 0 min 4,56 klux 15,00 min 6,3 C -6,0 C
13.11.2006 11:45 7,0 C 6,7 C 95 % 1009 hPa 0,3 l/m 38,2 km/h (5 Bft) W-SW45 240 0 min 6,18 klux 15,00 min 6,3 C -5,2 C
13.11.2006 12:00 7,1 C 6,8 C 95 % 1009 hPa 0,3 l/m 38,7 km/h (5 Bft) W-SW45 250 0 min 4,16 klux 15,00 min 6,4 C -5,2 C
13.11.2006 12:15 7,2 C 6,8 C 95 % 1009 hPa 0,0 l/m 38,2 km/h (5 Bft) W-SW45 245 0 min 4,20 klux 0,00 min 6,5 C -5,0 C
13.11.2006 12:30 7,2 C 6,9 C 95 % 1009 hPa 0,0 l/m 47,6 km/h (6 Bft) W-SW45 245 0 min 4,32 klux 0,00 min 6,5 C -6,3 C
13.11.2006 12:45 7,2 C 6,9 C 95 % 1008 hPa 0,0 l/m 39,8 km/h (6 Bft) W-SW45 240 0 min 3,28 klux 0,00 min 6,5 C -5,2 C
13.11.2006 13:00 7,2 C 7,0 C 95 % 1008 hPa 0,6 l/m 43,9 km/h (6 Bft) SW45 230 0 min 4,48 klux 15,00 min 6,5 C -5,8 C
13.11.2006 13:15 7,2 C 7,0 C 95 % 1008 hPa 0,6 l/m 43,0 km/h (6 Bft) SW45 235 0 min 2,67 klux 15,00 min 6,5 C -5,7 C
13.11.2006 13:30 7,2 C 7,0 C 95 % 1008 hPa 0,0 l/m 46,8 km/h (6 Bft) W-SW45 250 0 min 2,51 klux 0,00 min 6,5 C -6,2 C
13.11.2006 13:45 7,3 C 7,0 C 95 % 1008 hPa 0,0 l/m 45,8 km/h (6 Bft) W-SW45 250 0 min 4,06 klux 0,00 min 6,6 C -6,0 C
13.11.2006 14:00 7,4 C 7,1 C 95 % 1008 hPa 0,3 l/m 43,3 km/h (6 Bft) W45 260 0 min 4,38 klux 15,00 min 6,7 C -5,5 C
13.11.2006 14:15 7,4 C 7,2 C 95 % 1007 hPa 0,3 l/m 42,3 km/h (6 Bft) W-SW45 255 0 min 3,35 klux 15,00 min 6,7 C -5,3 C
13.11.2006 14:30 7,5 C 7,3 C 95 % 1007 hPa 0,3 l/m 43,7 km/h (6 Bft) W-SW45 250 0 min 4,67 klux 15,00 min 6,8 C -5,4 C
13.11.2006 14:45 7,6 C 7,4 C 95 % 1007 hPa 0,3 l/m 42,2 km/h (6 Bft) W-SW45 245 0 min 3,40 klux 15,00 min 6,9 C -5,0 C
13.11.2006 15:00 7,7 C 7,4 C 95 % 1007 hPa 0,0 l/m 44,5 km/h (6 Bft) W-SW22.5 255 0 min 1,83 klux 0,00 min 7,0 C -5,2 C
13.11.2006 15:15 7,7 C 7,5 C 95 % 1007 hPa 0,0 l/m 42,1 km/h (6 Bft) W-SW22.5 250 0 min 1,17 klux 0,00 min 7,0 C -4,8 C
13.11.2006 15:30 7,8 C 7,6 C 95 % 1007 hPa 0,0 l/m 35,5 km/h (5 Bft) W-SW45 255 0 min 1,17 klux 0,00 min 7,0 C -3,6 C
13.11.2006 15:45 8,0 C 7,8 C 96 % 1007 hPa 0,0 l/m 40,5 km/h (6 Bft) W-SW67.5 255 0 min 957 lux 0,00 min 7,4 C -4,2 C
13.11.2006 16:00 8,0 C 7,9 C 96 % 1007 hPa 0,6 l/m 40,7 km/h (6 Bft) W-SW45 255 0 min 969 lux 15,00 min 7,4 C -4,2 C
13.11.2006 16:15 8,1 C 8,0 C 96 % 1007 hPa 0,3 l/m 34,1 km/h (5 Bft) W-SW67.5 255 0 min 578 lux 15,00 min 7,5 C -2,9 C
13.11.2006 16:30 8,3 C 8,2 C 96 % 1007 hPa 0,3 l/m 38,4 km/h (5 Bft) W-SW45 245 0 min 750 lux 15,00 min 7,7 C -3,4 C
13.11.2006 16:45 8,5 C 8,3 C 96 % 1007 hPa 0,0 l/m 38,3 km/h (5 Bft) W-SW67.5 250 0 min 718 lux 0,00 min 7,9 C -3,1 C
13.11.2006 17:00 8,5 C 8,4 C 96 % 1007 hPa 0,3 l/m 34,1 km/h (5 Bft) W-SW67.5 250 0 min 192 lux 15,00 min 7,9 C -2,3 C
13.11.2006 17:15 8,6 C 8,5 C 96 % 1007 hPa 0,0 l/m 41,1 km/h (6 Bft) W-SW22.5 255 0 min 44 lux 0,00 min 8,0 C -3,3 C
13.11.2006 17:30 8,6 C 8,6 C 96 % 1007 hPa 0,0 l/m 35,6 km/h (5 Bft) W-SW22.5 255 0 min 7 lux 0,00 min 8,0 C -2,4 C
13.11.2006 17:45 8,8 C 8,7 C 96 % 1007 hPa 0,0 l/m 42,3 km/h (6 Bft) W45 260 0 min 0 lux 0,00 min 8,2 C -3,2 C
13.11.2006 18:00 9,0 C 8,8 C 95 % 1007 hPa 0,3 l/m 43,5 km/h (6 Bft) W67.5 265 0 min 0 lux 15,00 min 8,2 C -3,1 C
13.11.2006 18:15 9,1 C 9,0 C 95 % 1008 hPa 0,0 l/m 35,6 km/h (5 Bft) W-SW67.5 255 0 min 0 lux 0,00 min 8,3 C -1,7 C
13.11.2006 18:30 9,1 C 9,0 C 95 % 1008 hPa 0,0 l/m 36,3 km/h (5 Bft) W-SW45 250 0 min 0 lux 0,00 min 8,3 C -1,8 C
13.11.2006 18:45 9,2 C 9,1 C 95 % 1008 hPa 0,0 l/m 38,1 km/h (5 Bft) W-SW22.5 255 0 min 0 lux 0,00 min 8,4 C -2,0 C
13.11.2006 19:00 9,2 C 9,1 C 95 % 1008 hPa 0,0 l/m 39,4 km/h (6 Bft) W45 265 0 min 0 lux 0,00 min 8,4 C -2,2 C
13.11.2006 19:15 9,3 C 9,1 C 95 % 1008 hPa 0,0 l/m 36,0 km/h (5 Bft) W67.5 265 0 min 0 lux 0,00 min 8,5 C -1,5 C
13.11.2006 19:30 9,4 C 9,2 C 95 % 1008 hPa 0,0 l/m 29,5 km/h (5 Bft) W45 265 0 min 0 lux 0,00 min 8,6 C -0,1 C
13.11.2006 19:45 9,4 C 9,2 C 95 % 1008 hPa 0,0 l/m 26,9 km/h (4 Bft) W45 260 0 min 0 lux 0,00 min 8,6 C 0,5 C
13.11.2006 20:00 9,4 C 9,2 C 95 % 1008 hPa 0,6 l/m 26,7 km/h (4 Bft) W45 270 0 min 0 lux 15,00 min 8,6 C 0,6 C
13.11.2006 20:15 9,5 C 9,3 C 95 % 1008 hPa 0,0 l/m 33,6 km/h (5 Bft) W-SW22.5 255 0 min 0 lux 0,00 min 8,7 C -0,8 C
13.11.2006 20:30 9,5 C 9,3 C 95 % 1008 hPa 0,0 l/m 41,7 km/h (6 Bft) W45 265 0 min 0 lux 0,00 min 8,7 C -2,1 C
13.11.2006 20:45 9,6 C 9,3 C 95 % 1008 hPa 0,0 l/m 38,4 km/h (5 Bft) W45 270 0 min 0 lux 0,00 min 8,8 C -1,5 C
13.11.2006 21:00 9,5 C 9,3 C 94 % 1009 hPa 0,0 l/m 39,1 km/h (6 Bft) W67.5 270 0 min 800 lux 0,00 min 8,6 C -1,7 C
13.11.2006 21:15 9,4 C 9,3 C 94 % 1009 hPa 0,0 l/m 27,4 km/h (4 Bft) W67.5 265 0 min 0 lux 0,00 min 8,5 C 0,4 C
13.11.2006 21:30 9,4 C 9,3 C 93 % 1009 hPa 0,0 l/m 32,6 km/h (5 Bft) W22.5 265 0 min 0 lux 0,00 min 8,3 C -0,7 C
13.11.2006 21:45 9,4 C 9,3 C 93 % 1009 hPa 0,0 l/m 31,0 km/h (5 Bft) W45 260 0 min 0 lux 0,00 min 8,3 C -0,4 C
13.11.2006 22:00 9,4 C 9,3 C 93 % 1009 hPa 0,0 l/m 38,1 km/h (5 Bft) W22.5 270 0 min 0 lux 0,00 min 8,3 C -1,7 C
13.11.2006 22:15 9,3 C 9,2 C 93 % 1009 hPa 0,0 l/m 32,6 km/h (5 Bft) W45 270 0 min 0 lux 0,00 min 8,2 C -0,9 C
13.11.2006 22:30 9,3 C 9,2 C 93 % 1009 hPa 0,0 l/m 29,0 km/h (5 Bft) W67.5 265 0 min 0 lux 0,00 min 8,2 C -0,1 C
13.11.2006 22:45 9,3 C 9,3 C 93 % 1009 hPa 0,0 l/m 32,7 km/h (5 Bft) W22.5 270 0 min 0 lux 0,00 min 8,2 C -0,9 C
13.11.2006 23:00 9,4 C 9,3 C 93 % 1009 hPa 0,0 l/m 32,0 km/h (5 Bft) W45 260 0 min 0 lux 0,00 min 8,3 C -0,6 C
13.11.2006 23:15 9,4 C 9,4 C 93 % 1009 hPa 0,0 l/m 28,9 km/h (5 Bft) W-SW22.5 255 0 min 0 lux 0,00 min 8,3 C 0,1 C
13.11.2006 23:30 9,5 C 9,5 C 93 % 1009 hPa 0,0 l/m 30,8 km/h (5 Bft) W45 265 0 min 0 lux 0,00 min 8,4 C -0,2 C
13.11.2006 23:40 9,6 C 9,5 C 93 % 1009 hPa 0,0 l/m 38,1 km/h (5 Bft) W-SW22.5 255 0 min 0 lux 0,00 min 8,5 C -1,4 C
13.11.2006 23:54 9,6 C 9,5 C 93 % 1009 hPa 0,0 l/m 28,0 km/h (4 Bft) W22.5 260 0 min 0 lux 0,00 min 8,5 C 0,5 C
_ Min-Zeit 00:00 02:45 00:00 14:15 - 02:30 - - - - - 00:00 05:45
Minimum _ 3,9 C 3,6 C 92 % 1007 hPa - 13,4 km/h (3 Bft) - - - - - 2,7 C -9,5 C
_ Max-Zeit 20:45 23:30 15:45 00:00 13:00 09:30 - - 00:00 09:30 06:00 20:45 20:00
Maximum _ 9,6 C 9,5 C 96 % 1016 hPa 0,6 l/m 50,0 km/h
W-SW (6 Bft)
- - 0 min 11,4 klux 15,00 min 8,8 C 0,6 C
Durchschnitt _ 6,8 C 6,6 C 94 % 1010 hPa #9,2 l/m 35,0 km/h (5 Bft) W-SW - #0 min. 1,58 klux #7:00 h 5,9 C -4,7 C